Main page
METAR-TAF:

METAR-TAF

Airports :

RAF Odiham

Odiham, England

latitude: 51-14N, longitude: 000-57W, elevation: 123 m

Current weather observation

The report was made 32 minutes ago, at 21:20 UTC
Wind 10 kt from the West/Southwest
Temperature 13°C
Humidity 77%
Pressure 1018 hPa
Visibility 10 km or more
no clouds below 1500 m and no cumulonimbus

METAR: EGVO 252120Z 24010KT CAVOK 13/09 Q1018 NOSIG RMK BLU BLU

Time: 22:52 (21:52 UTC)

Forecast

The report was made 2 hours and 31 minutes ago, at 19:21 UTC
Forecast valid from 25 at 21 UTC to 26 at 09 UTC
Wind 12 kt from the West
Visibility 10 km or more
Few clouds at a height of 3500 ft
Temporary
from 26 at 06 UTC to 26 at 09 UTC
Broken clouds at a height of 1800 ft

TAF: EGVO 251921Z 2521/2609 26012KT 9999 FEW035 TEMPO 2606/2609 BKN018

Weather observations and forecasts of more than 4000 airports (METAR and TAF reports).

The available stations are represented by yellow and red dots on the map.

Hover mouse over dot to see the name of the station.

Then click to see weather observations and forecasts.

To change the map : click on the green buttons with a black cross to zoom in, on the green button with a dash to zoom out, or on the green arrows for adjacent maps.


METAR-TAF: